Impacts METAR Board
IDs:

KSEA - Seattle-Tacoma Intl, WA, US

Updated at: 1500 UTC 23 May 2018
Potential Impact None Slight Moderate High
Time 23/03Z 23/04Z 23/05Z 23/06Z 23/07Z 23/08Z 23/09Z 23/10Z 23/11Z 23/12Z 23/13Z 23/14Z 23/15Z
Temp74 70 66 65 64 63 62 58 57 57 59 61 63
Dewpt49 50 50 50 49 48 49 48 49 48 48 48 49
Altim29.82 29.83 29.84 29.84 29.83 29.83 29.82 29.82 29.82 29.82 29.81 29.83 29.83
VIS10 10 10 10 10 10 10 10 10 10 10 10 10
CIG-- -- -- -- -- -- -- -- -- -- -- -- --
CoverCLRCLRCLRCLRFEWSCTSCTFEWFEWFEWFEWFEWFEW
FltCatVFRVFRVFRVFRVFRVFRVFRVFRVFRVFRVFRVFRVFR
WX--------------------------
WDir3403503601020202033032020400280
WSpd7 7 7 10 9 10 12 6 4 5 4 0 4
WGst-- -- -- -- -- -- -- -- -- -- -- -- --
Raw hourly METARs
KSEA 230253Z 34007KT 10SM CLR 23/09 A2982 RMK AO2 SLP103 T02330094 56008
KSEA 230353Z 35007KT 10SM CLR 21/10 A2983 RMK AO2 SLP105 T02110100
KSEA 230453Z 36007KT 10SM CLR 19/10 A2984 RMK AO2 SLP108 T01890100
KSEA 230553Z 01010KT 10SM CLR 18/10 A2984 RMK AO2 SLP108 T01830100 10261 20178 50004
KSEA 230653Z 02009KT 10SM FEW140 18/09 A2983 RMK AO2 SLP106 T01780094
KSEA 230753Z 02010KT 10SM SCT140 17/09 A2983 RMK AO2 SLP104 T01720089 402610106
KSEA 230853Z 02012KT 10SM SCT110 17/09 A2982 RMK AO2 SLP101 T01670094 58007
KSEA 230953Z 33006KT 10SM FEW110 14/09 A2982 RMK AO2 SLP101 T01440089
KSEA 231053Z 32004KT 10SM FEW110 14/09 A2982 RMK AO2 SLP100 T01390094
KSEA 231153Z 02005KT 10SM FEW110 14/09 A2982 RMK AO2 SLP102 T01390089 10189 20128 53001
KSEA 231253Z 04004KT 10SM FEW110 15/09 A2981 RMK AO2 SLP100 T01500089
KSEA 231353Z 00000KT 10SM FEW110 16/09 A2983 RMK AO2 SLP104 T01610089
KSEA 231453Z 28004KT 10SM FEW110 17/09 A2983 RMK AO2 SLP106 T01720094 53005



Page loaded:  15:12 UTC  |   08:12 AM Pacific  |   09:12 AM Mountain  |   10:12 AM Central  |   11:12 AM Eastern

 

ADVISORIES

FORECASTS

FORECASTS

OBSERVATIONS

USER TOOLS

ABOUT US